BKB2 CYKA-CZAM
Flight info
| Callsign | BKB2 |
|---|---|
| Flight time | 1h 15m |
| Altitude | 7000 |
| Route | VFR |
| Aircraft | C208/L-SDF/C |
Departure
| Time | 2026-04-21 13:18 |
|---|---|
| Airport | Kamloops John Moose Fulton Field Regional Airport (CYKA) |
Arrival
| Time | 2026-04-21 14:33 |
|---|---|
| Airport | Shuswap Regional Airport (CZAM) |
| Time | Latitude | Longitude | Altitude | Speed | Heading |
|---|---|---|---|---|---|
| 2026-04-21 13:08 | 50.70551 | -120.43818 | 1133 ft | 0 kts | 61° |
| 2026-04-21 13:15 | 50.70562 | -120.43814 | 1135 ft | 5 kts | 353° |
| 2026-04-21 13:15 | 50.70564 | -120.43884 | 1134 ft | 13 kts | 237° |
| 2026-04-21 13:15 | 50.70505 | -120.43989 | 1134 ft | 11 kts | 211° |
| 2026-04-21 13:15 | 50.70463 | -120.44027 | 1135 ft | 7 kts | 209° |
| 2026-04-21 13:16 | 50.70426 | -120.44093 | 1133 ft | 12 kts | 239° |
| 2026-04-21 13:16 | 50.70376 | -120.44233 | 1135 ft | 17 kts | 240° |
| 2026-04-21 13:16 | 50.70320 | -120.44366 | 1135 ft | 14 kts | 200° |
| 2026-04-21 13:16 | 50.70233 | -120.44386 | 1134 ft | 8 kts | 130° |
| 2026-04-21 13:17 | 50.70229 | -120.44370 | 1135 ft | 0 kts | 103° |
| 2026-04-21 13:17 | 50.70227 | -120.44358 | 1135 ft | 10 kts | 102° |
| 2026-04-21 13:17 | 50.70176 | -120.44007 | 1135 ft | 54 kts | 103° |
| 2026-04-21 13:17 | 50.70062 | -120.43243 | 1139 ft | 86 kts | 101° |
| 2026-04-21 13:18 | 50.69939 | -120.42291 | 1279 ft | 91 kts | 99° |
| 2026-04-21 13:18 | 50.69814 | -120.41298 | 1439 ft | 93 kts | 100° |
| 2026-04-21 13:18 | 50.69685 | -120.40302 | 1622 ft | 93 kts | 101° |
| 2026-04-21 13:18 | 50.69556 | -120.39308 | 1784 ft | 95 kts | 101° |
| 2026-04-21 13:19 | 50.69418 | -120.38227 | 1909 ft | 105 kts | 101° |
| 2026-04-21 13:19 | 50.69271 | -120.37057 | 2058 ft | 113 kts | 100° |
| 2026-04-21 13:19 | 50.69117 | -120.35808 | 2194 ft | 119 kts | 101° |
| 2026-04-21 13:19 | 50.68960 | -120.34495 | 2324 ft | 125 kts | 100° |
| 2026-04-21 13:20 | 50.68855 | -120.33596 | 2426 ft | 128 kts | 101° |
| 2026-04-21 13:20 | 50.68654 | -120.31707 | 2600 ft | 134 kts | 100° |
| 2026-04-21 13:20 | 50.68494 | -120.30243 | 2700 ft | 137 kts | 101° |
| 2026-04-21 13:20 | 50.68324 | -120.28753 | 2819 ft | 139 kts | 100° |
| 2026-04-21 13:21 | 50.68151 | -120.27239 | 2939 ft | 141 kts | 101° |
| 2026-04-21 13:21 | 50.67983 | -120.25717 | 3057 ft | 141 kts | 101° |
| 2026-04-21 13:21 | 50.67817 | -120.24206 | 3184 ft | 142 kts | 100° |
| 2026-04-21 13:21 | 50.67654 | -120.22676 | 3305 ft | 141 kts | 100° |
| 2026-04-21 13:22 | 50.67482 | -120.21145 | 3439 ft | 142 kts | 100° |
| 2026-04-21 13:22 | 50.67309 | -120.19605 | 3567 ft | 143 kts | 100° |
| 2026-04-21 13:22 | 50.67130 | -120.18067 | 3697 ft | 141 kts | 100° |
| 2026-04-21 13:22 | 50.66956 | -120.16582 | 3820 ft | 134 kts | 101° |
| 2026-04-21 13:23 | 50.66791 | -120.15169 | 3929 ft | 129 kts | 100° |
| 2026-04-21 13:23 | 50.66680 | -120.14242 | 3958 ft | 131 kts | 101° |
| 2026-04-21 13:23 | 50.66452 | -120.12330 | 3988 ft | 134 kts | 100° |
| 2026-04-21 13:23 | 50.66278 | -120.10867 | 3996 ft | 137 kts | 100° |
| 2026-04-21 13:24 | 50.66160 | -120.09887 | 3998 ft | 138 kts | 100° |
| 2026-04-21 13:24 | 50.65979 | -120.08386 | 3998 ft | 140 kts | 100° |
| 2026-04-21 13:24 | 50.65797 | -120.06879 | 3999 ft | 140 kts | 100° |
| 2026-04-21 13:24 | 50.65615 | -120.05369 | 3995 ft | 140 kts | 100° |
| 2026-04-21 13:25 | 50.65507 | -120.03844 | 3995 ft | 140 kts | 83° |
| 2026-04-21 13:25 | 50.65643 | -120.02318 | 3994 ft | 141 kts | 80° |
| 2026-04-21 13:25 | 50.65813 | -120.00796 | 3994 ft | 141 kts | 78° |
| 2026-04-21 13:25 | 50.66002 | -119.99276 | 3990 ft | 141 kts | 78° |
| 2026-04-21 13:26 | 50.66199 | -119.97760 | 3993 ft | 142 kts | 78° |
| 2026-04-21 13:26 | 50.66401 | -119.96237 | 3993 ft | 143 kts | 77° |
| 2026-04-21 13:26 | 50.66608 | -119.94691 | 3994 ft | 145 kts | 77° |
| 2026-04-21 13:26 | 50.66815 | -119.93150 | 3991 ft | 143 kts | 77° |
| 2026-04-21 13:27 | 50.67050 | -119.91634 | 3987 ft | 142 kts | 65° |
| 2026-04-21 13:27 | 50.67607 | -119.90370 | 3991 ft | 141 kts | 52° |
| 2026-04-21 13:27 | 50.68208 | -119.89151 | 3990 ft | 140 kts | 50° |
| 2026-04-21 13:27 | 50.68821 | -119.87954 | 3990 ft | 140 kts | 50° |
| 2026-04-21 13:28 | 50.69439 | -119.86768 | 3995 ft | 140 kts | 50° |
| 2026-04-21 13:28 | 50.70059 | -119.85583 | 3997 ft | 140 kts | 49° |
| 2026-04-21 13:28 | 50.70682 | -119.84402 | 3998 ft | 140 kts | 49° |
| 2026-04-21 13:28 | 50.71331 | -119.83258 | 4000 ft | 140 kts | 43° |
| 2026-04-21 13:29 | 50.72049 | -119.82214 | 3999 ft | 140 kts | 40° |
| 2026-04-21 13:29 | 50.72773 | -119.81215 | 3999 ft | 139 kts | 40° |
| 2026-04-21 13:29 | 50.73751 | -119.79901 | 4003 ft | 137 kts | 39° |
| 2026-04-21 13:29 | 50.74234 | -119.79256 | 4003 ft | 137 kts | 39° |
| 2026-04-21 13:30 | 50.74963 | -119.78287 | 4003 ft | 137 kts | 39° |
| 2026-04-21 13:30 | 50.75694 | -119.77318 | 4002 ft | 137 kts | 39° |
| 2026-04-21 13:30 | 50.76423 | -119.76350 | 4003 ft | 137 kts | 39° |
| 2026-04-21 13:30 | 50.77153 | -119.75384 | 4007 ft | 137 kts | 39° |
| 2026-04-21 13:31 | 50.77885 | -119.74412 | 4004 ft | 137 kts | 39° |
| 2026-04-21 13:31 | 50.78619 | -119.73436 | 3966 ft | 140 kts | 39° |
| 2026-04-21 13:31 | 50.79384 | -119.72421 | 3841 ft | 147 kts | 39° |
| 2026-04-21 13:31 | 50.80175 | -119.71374 | 3712 ft | 148 kts | 39° |
| 2026-04-21 13:32 | 50.80925 | -119.70259 | 3582 ft | 148 kts | 49° |
| 2026-04-21 13:32 | 50.81564 | -119.68993 | 3451 ft | 145 kts | 52° |
| 2026-04-21 13:32 | 50.82144 | -119.67758 | 3312 ft | 134 kts | 53° |
| 2026-04-21 13:32 | 50.82674 | -119.66599 | 3169 ft | 126 kts | 54° |
| 2026-04-21 13:33 | 50.83159 | -119.65516 | 2993 ft | 117 kts | 54° |
| 2026-04-21 13:33 | 50.83609 | -119.64498 | 2806 ft | 111 kts | 54° |
| 2026-04-21 13:33 | 50.84047 | -119.63490 | 2549 ft | 112 kts | 54° |
| 2026-04-21 13:33 | 50.84488 | -119.62498 | 2351 ft | 107 kts | 54° |
| 2026-04-21 13:34 | 50.84909 | -119.61561 | 2206 ft | 105 kts | 54° |
| 2026-04-21 13:34 | 50.85305 | -119.60673 | 2101 ft | 90 kts | 54° |
| 2026-04-21 13:34 | 50.85647 | -119.59921 | 2005 ft | 82 kts | 52° |
| 2026-04-21 13:34 | 50.85992 | -119.59228 | 1877 ft | 76 kts | 44° |
| 2026-04-21 13:35 | 50.86472 | -119.58892 | 1645 ft | 80 kts | 6° |
| 2026-04-21 13:35 | 50.87029 | -119.58919 | 1362 ft | 80 kts | 352° |
| 2026-04-21 13:35 | 50.87562 | -119.59024 | 1191 ft | 70 kts | 353° |
| 2026-04-21 13:35 | 50.87900 | -119.59074 | 1193 ft | 23 kts | 355° |
| 2026-04-21 13:36 | 50.87961 | -119.59071 | 1195 ft | 4 kts | 71° |
| 2026-04-21 13:36 | 50.87966 | -119.59006 | 1196 ft | 8 kts | 82° |
| 2026-04-21 13:36 | 50.87950 | -119.58957 | 1191 ft | 1 kts | 179° |
| 2026-04-21 13:42 | 50.87945 | -119.58990 | 1196 ft | 6 kts | 277° |
| 2026-04-21 13:42 | 50.87970 | -119.59071 | 1195 ft | 7 kts | 349° |
| 2026-04-21 13:42 | 50.88022 | -119.59077 | 1200 ft | 7 kts | 354° |
| 2026-04-21 13:43 | 50.88072 | -119.59084 | 1202 ft | 8 kts | 356° |
| 2026-04-21 13:43 | 50.88130 | -119.59084 | 1204 ft | 8 kts | 1° |
| 2026-04-21 13:43 | 50.88162 | -119.59087 | 1204 ft | 1 kts | 280° |
| 2026-04-21 13:43 | 50.88149 | -119.59092 | 1204 ft | 4 kts | 176° |
| 2026-04-21 13:44 | 50.88020 | -119.59077 | 1200 ft | 39 kts | 176° |
| 2026-04-21 13:44 | 50.87619 | -119.59039 | 1189 ft | 74 kts | 176° |
| 2026-04-21 13:44 | 50.87068 | -119.58967 | 1299 ft | 82 kts | 176° |
| 2026-04-21 13:44 | 50.86499 | -119.59056 | 1447 ft | 85 kts | 200° |
| 2026-04-21 13:45 | 50.86025 | -119.59645 | 1598 ft | 89 kts | 231° |
| 2026-04-21 13:45 | 50.85653 | -119.60431 | 1757 ft | 93 kts | 230° |
| 2026-04-21 13:45 | 50.85256 | -119.61295 | 1864 ft | 101 kts | 235° |
| 2026-04-21 13:45 | 50.84848 | -119.62269 | 1959 ft | 113 kts | 236° |
| 2026-04-21 13:46 | 50.84399 | -119.63367 | 2059 ft | 124 kts | 237° |
| 2026-04-21 13:46 | 50.83916 | -119.64555 | 2158 ft | 132 kts | 237° |
| 2026-04-21 13:46 | 50.83406 | -119.65801 | 2256 ft | 137 kts | 237° |
| 2026-04-21 13:46 | 50.82880 | -119.67094 | 2357 ft | 142 kts | 237° |
| 2026-04-21 13:47 | 50.82232 | -119.68282 | 2451 ft | 144 kts | 225° |
| 2026-04-21 13:47 | 50.81509 | -119.69399 | 2547 ft | 146 kts | 224° |
| 2026-04-21 13:47 | 50.80766 | -119.70499 | 2642 ft | 146 kts | 223° |
| 2026-04-21 13:47 | 50.79990 | -119.71535 | 2741 ft | 145 kts | 217° |
| 2026-04-21 13:48 | 50.79182 | -119.72414 | 2835 ft | 136 kts | 214° |
| 2026-04-21 13:48 | 50.78409 | -119.73212 | 2930 ft | 129 kts | 213° |
| 2026-04-21 13:48 | 50.77666 | -119.73961 | 3031 ft | 125 kts | 213° |
| 2026-04-21 13:48 | 50.76945 | -119.74689 | 3137 ft | 122 kts | 212° |
| 2026-04-21 13:49 | 50.76237 | -119.75403 | 3243 ft | 120 kts | 212° |
| 2026-04-21 13:49 | 50.75539 | -119.76109 | 3352 ft | 119 kts | 212° |
| 2026-04-21 13:49 | 50.74843 | -119.76821 | 3435 ft | 120 kts | 214° |
| 2026-04-21 13:49 | 50.74193 | -119.77681 | 3470 ft | 122 kts | 222° |
| 2026-04-21 13:50 | 50.73586 | -119.78592 | 3478 ft | 119 kts | 224° |
| 2026-04-21 13:50 | 50.73005 | -119.79499 | 3483 ft | 116 kts | 225° |
| 2026-04-21 13:50 | 50.72438 | -119.80400 | 3491 ft | 116 kts | 225° |
| 2026-04-21 13:50 | 50.71875 | -119.81300 | 3491 ft | 114 kts | 225° |
| 2026-04-21 13:51 | 50.71321 | -119.82191 | 3486 ft | 113 kts | 225° |
| 2026-04-21 13:51 | 50.70772 | -119.83074 | 3492 ft | 113 kts | 225° |
| 2026-04-21 13:51 | 50.70242 | -119.83978 | 3493 ft | 112 kts | 233° |
| 2026-04-21 13:51 | 50.69794 | -119.84986 | 3494 ft | 112 kts | 236° |
| 2026-04-21 13:52 | 50.69369 | -119.86017 | 3494 ft | 112 kts | 237° |
| 2026-04-21 13:52 | 50.68954 | -119.87059 | 3493 ft | 112 kts | 238° |
| 2026-04-21 13:52 | 50.68543 | -119.88108 | 3496 ft | 112 kts | 238° |
| 2026-04-21 13:52 | 50.68135 | -119.89158 | 3493 ft | 112 kts | 238° |
| 2026-04-21 13:53 | 50.67728 | -119.90210 | 3495 ft | 113 kts | 238° |
| 2026-04-21 13:53 | 50.67325 | -119.91253 | 3495 ft | 113 kts | 238° |
| 2026-04-21 13:53 | 50.66919 | -119.92309 | 3495 ft | 113 kts | 241° |
| 2026-04-21 13:53 | 50.66747 | -119.93515 | 3495 ft | 112 kts | 263° |
| 2026-04-21 13:54 | 50.66674 | -119.94723 | 3494 ft | 112 kts | 265° |
| 2026-04-21 13:54 | 50.66623 | -119.95968 | 3493 ft | 112 kts | 266° |
| 2026-04-21 13:54 | 50.66586 | -119.97180 | 3494 ft | 112 kts | 267° |
| 2026-04-21 13:54 | 50.66552 | -119.98412 | 3491 ft | 112 kts | 267° |
| 2026-04-21 13:55 | 50.66522 | -119.99641 | 3494 ft | 112 kts | 267° |
| 2026-04-21 13:55 | 50.66492 | -120.00868 | 3498 ft | 112 kts | 267° |
| 2026-04-21 13:55 | 50.66463 | -120.02094 | 3499 ft | 112 kts | 267° |
| 2026-04-21 13:55 | 50.66449 | -120.03319 | 3500 ft | 112 kts | 270° |
| 2026-04-21 13:56 | 50.66468 | -120.04545 | 3500 ft | 112 kts | 271° |
| 2026-04-21 13:56 | 50.66497 | -120.05770 | 3501 ft | 112 kts | 272° |
| 2026-04-21 13:56 | 50.66523 | -120.06996 | 3501 ft | 112 kts | 272° |
| 2026-04-21 13:56 | 50.66558 | -120.08216 | 3503 ft | 112 kts | 272° |
| 2026-04-21 13:57 | 50.66604 | -120.09440 | 3506 ft | 112 kts | 272° |
| 2026-04-21 13:57 | 50.66650 | -120.10671 | 3506 ft | 113 kts | 272° |
| 2026-04-21 13:57 | 50.66698 | -120.11903 | 3505 ft | 113 kts | 272° |
| 2026-04-21 13:57 | 50.66747 | -120.13141 | 3506 ft | 113 kts | 272° |
| 2026-04-21 13:58 | 50.66794 | -120.14380 | 3504 ft | 113 kts | 272° |
| 2026-04-21 13:58 | 50.66840 | -120.15620 | 3504 ft | 113 kts | 272° |
| 2026-04-21 13:58 | 50.66887 | -120.16856 | 3504 ft | 113 kts | 272° |
| 2026-04-21 13:58 | 50.66934 | -120.18088 | 3502 ft | 112 kts | 272° |
| 2026-04-21 13:59 | 50.66980 | -120.19318 | 3503 ft | 112 kts | 272° |
| 2026-04-21 13:59 | 50.67028 | -120.20528 | 3503 ft | 112 kts | 272° |
| 2026-04-21 13:59 | 50.67074 | -120.21752 | 3506 ft | 112 kts | 272° |
| 2026-04-21 13:59 | 50.67124 | -120.22972 | 3507 ft | 112 kts | 275° |
| 2026-04-21 14:00 | 50.67218 | -120.24187 | 3504 ft | 112 kts | 277° |
| 2026-04-21 14:00 | 50.67373 | -120.25386 | 3505 ft | 112 kts | 283° |
| 2026-04-21 14:00 | 50.67567 | -120.26569 | 3505 ft | 111 kts | 284° |
| 2026-04-21 14:00 | 50.67783 | -120.27798 | 3377 ft | 123 kts | 285° |
| 2026-04-21 14:01 | 50.68029 | -120.29141 | 3197 ft | 132 kts | 285° |
| 2026-04-21 14:01 | 50.68275 | -120.30558 | 3025 ft | 136 kts | 282° |
| 2026-04-21 14:01 | 50.68502 | -120.32021 | 2886 ft | 138 kts | 282° |
| 2026-04-21 14:01 | 50.68722 | -120.33501 | 2707 ft | 139 kts | 281° |
| 2026-04-21 14:02 | 50.68865 | -120.34498 | 2558 ft | 137 kts | 283° |
| 2026-04-21 14:02 | 50.69106 | -120.36357 | 2328 ft | 121 kts | 281° |
| 2026-04-21 14:02 | 50.69259 | -120.37608 | 2146 ft | 112 kts | 281° |
| 2026-04-21 14:03 | 50.69551 | -120.39749 | 1846 ft | 91 kts | 282° |
| 2026-04-21 14:03 | 50.69679 | -120.40650 | 1690 ft | 80 kts | 282° |
| 2026-04-21 14:03 | 50.69805 | -120.41495 | 1472 ft | 79 kts | 282° |
| 2026-04-21 14:03 | 50.69923 | -120.42334 | 1292 ft | 78 kts | 283° |
| 2026-04-21 14:04 | 50.70046 | -120.43132 | 1159 ft | 72 kts | 282° |
| 2026-04-21 14:04 | 50.70146 | -120.43808 | 1133 ft | 51 kts | 282° |
| 2026-04-21 14:04 | 50.70197 | -120.44150 | 1134 ft | 21 kts | 282° |
| 2026-04-21 14:04 | 50.70250 | -120.44388 | 1133 ft | 23 kts | 335° |
| 2026-04-21 14:05 | 50.70360 | -120.44284 | 1134 ft | 19 kts | 59° |
| 2026-04-21 14:05 | 50.70420 | -120.44109 | 1133 ft | 18 kts | 61° |
| 2026-04-21 14:05 | 50.70486 | -120.44008 | 1136 ft | 13 kts | 25° |
| 2026-04-21 14:05 | 50.70549 | -120.43924 | 1133 ft | 12 kts | 79° |
| 2026-04-21 14:06 | 50.70557 | -120.43824 | 1136 ft | 2 kts | 59° |
| 2026-04-21 14:06 | 50.70558 | -120.43820 | 1135 ft | 0 kts | 62° |
| 2026-04-21 14:10 | 50.70578 | -120.43802 | 1134 ft | 8 kts | 328° |
| 2026-04-21 14:10 | 50.70555 | -120.43910 | 1133 ft | 14 kts | 240° |
| 2026-04-21 14:10 | 50.70486 | -120.44008 | 1135 ft | 12 kts | 208° |
| 2026-04-21 14:10 | 50.70425 | -120.44097 | 1135 ft | 15 kts | 241° |
| 2026-04-21 14:11 | 50.70374 | -120.44243 | 1133 ft | 14 kts | 241° |
| 2026-04-21 14:11 | 50.70330 | -120.44362 | 1133 ft | 13 kts | 229° |
| 2026-04-21 14:11 | 50.70259 | -120.44397 | 1136 ft | 9 kts | 192° |
| 2026-04-21 14:11 | 50.70233 | -120.44381 | 1136 ft | 0 kts | 102° |
| 2026-04-21 14:12 | 50.70202 | -120.44175 | 1135 ft | 42 kts | 103° |
| 2026-04-21 14:12 | 50.70103 | -120.43510 | 1134 ft | 81 kts | 103° |
| 2026-04-21 14:12 | 50.69970 | -120.42566 | 1248 ft | 91 kts | 101° |
| 2026-04-21 14:13 | 50.69831 | -120.41529 | 1333 ft | 106 kts | 100° |
| 2026-04-21 14:13 | 50.69673 | -120.40306 | 1449 ft | 120 kts | 100° |
| 2026-04-21 14:13 | 50.69501 | -120.38965 | 1601 ft | 129 kts | 100° |
| 2026-04-21 14:13 | 50.69320 | -120.37537 | 1745 ft | 136 kts | 100° |
| 2026-04-21 14:14 | 50.69469 | -120.36099 | 1877 ft | 139 kts | 51° |
| 2026-04-21 14:14 | 50.70284 | -120.35350 | 2067 ft | 136 kts | 19° |
| 2026-04-21 14:14 | 50.71126 | -120.34711 | 2225 ft | 135 kts | 46° |
| 2026-04-21 14:14 | 50.71416 | -120.33342 | 2433 ft | 135 kts | 83° |
| 2026-04-21 14:15 | 50.71495 | -120.31868 | 2608 ft | 134 kts | 83° |
| 2026-04-21 14:15 | 50.71538 | -120.30399 | 2778 ft | 134 kts | 86° |
| 2026-04-21 14:15 | 50.71565 | -120.28938 | 2983 ft | 131 kts | 86° |
| 2026-04-21 14:15 | 50.71574 | -120.27529 | 3233 ft | 126 kts | 90° |
| 2026-04-21 14:16 | 50.71288 | -120.26257 | 3465 ft | 124 kts | 123° |
| 2026-04-21 14:16 | 50.70784 | -120.25175 | 3719 ft | 120 kts | 122° |
| 2026-04-21 14:16 | 50.70434 | -120.24022 | 3967 ft | 116 kts | 108° |
| 2026-04-21 14:16 | 50.70231 | -120.22800 | 4216 ft | 112 kts | 99° |
| 2026-04-21 14:17 | 50.70118 | -120.21615 | 4464 ft | 107 kts | 94° |
| 2026-04-21 14:17 | 50.70057 | -120.20472 | 4711 ft | 102 kts | 91° |
| 2026-04-21 14:17 | 50.70027 | -120.19370 | 4883 ft | 106 kts | 90° |
| 2026-04-21 14:17 | 50.70001 | -120.18132 | 4923 ft | 122 kts | 90° |
| 2026-04-21 14:18 | 50.69976 | -120.16730 | 4984 ft | 134 kts | 90° |
| 2026-04-21 14:18 | 50.69952 | -120.15183 | 4993 ft | 147 kts | 90° |
| 2026-04-21 14:18 | 50.69923 | -120.13520 | 4984 ft | 155 kts | 90° |
| 2026-04-21 14:18 | 50.69895 | -120.11786 | 4984 ft | 161 kts | 90° |
| 2026-04-21 14:19 | 50.69867 | -120.10005 | 4978 ft | 164 kts | 90° |
| 2026-04-21 14:19 | 50.69840 | -120.08192 | 4980 ft | 166 kts | 90° |
| 2026-04-21 14:19 | 50.69813 | -120.06365 | 4981 ft | 167 kts | 90° |
| 2026-04-21 14:19 | 50.69787 | -120.04525 | 4980 ft | 168 kts | 90° |
| 2026-04-21 14:20 | 50.69759 | -120.02700 | 4980 ft | 169 kts | 90° |
| 2026-04-21 14:20 | 50.69732 | -120.00826 | 4980 ft | 169 kts | 90° |
| 2026-04-21 14:20 | 50.69702 | -119.98988 | 4977 ft | 170 kts | 90° |
| 2026-04-21 14:20 | 50.69672 | -119.97123 | 4970 ft | 170 kts | 90° |
| 2026-04-21 14:21 | 50.69647 | -119.95257 | 4970 ft | 170 kts | 90° |
| 2026-04-21 14:21 | 50.69620 | -119.93395 | 4970 ft | 169 kts | 90° |
| 2026-04-21 14:21 | 50.69591 | -119.91540 | 4969 ft | 169 kts | 90° |
| 2026-04-21 14:21 | 50.69560 | -119.89691 | 4977 ft | 169 kts | 90° |
| 2026-04-21 14:22 | 50.69530 | -119.87832 | 4974 ft | 169 kts | 90° |
| 2026-04-21 14:22 | 50.69500 | -119.85975 | 4972 ft | 169 kts | 90° |
| 2026-04-21 14:22 | 50.69471 | -119.84119 | 4971 ft | 169 kts | 90° |
| 2026-04-21 14:22 | 50.69441 | -119.82271 | 4972 ft | 169 kts | 90° |
| 2026-04-21 14:23 | 50.69410 | -119.80420 | 4971 ft | 169 kts | 90° |
| 2026-04-21 14:23 | 50.69381 | -119.78575 | 4972 ft | 168 kts | 90° |
| 2026-04-21 14:23 | 50.69352 | -119.76726 | 4973 ft | 168 kts | 91° |
| 2026-04-21 14:23 | 50.69319 | -119.74879 | 4973 ft | 168 kts | 91° |
| 2026-04-21 14:24 | 50.69286 | -119.73030 | 4973 ft | 168 kts | 91° |
| 2026-04-21 14:24 | 50.69253 | -119.71210 | 4973 ft | 168 kts | 91° |
| 2026-04-21 14:24 | 50.69220 | -119.69364 | 4974 ft | 168 kts | 91° |
| 2026-04-21 14:24 | 50.69187 | -119.67518 | 4972 ft | 168 kts | 91° |
| 2026-04-21 14:25 | 50.69153 | -119.65680 | 4977 ft | 167 kts | 91° |
| 2026-04-21 14:25 | 50.69122 | -119.63892 | 5100 ft | 160 kts | 91° |
| 2026-04-21 14:25 | 50.69094 | -119.62166 | 5225 ft | 156 kts | 91° |
| 2026-04-21 14:25 | 50.69065 | -119.60472 | 5353 ft | 153 kts | 91° |
| 2026-04-21 14:26 | 50.69036 | -119.58800 | 5450 ft | 154 kts | 90° |
| 2026-04-21 14:26 | 50.69002 | -119.57083 | 5464 ft | 158 kts | 91° |
| 2026-04-21 14:26 | 50.68967 | -119.55334 | 5469 ft | 161 kts | 91° |
| 2026-04-21 14:26 | 50.68932 | -119.53553 | 5473 ft | 163 kts | 91° |
| 2026-04-21 14:27 | 50.68898 | -119.51755 | 5475 ft | 165 kts | 91° |
| 2026-04-21 14:27 | 50.68863 | -119.49947 | 5481 ft | 166 kts | 91° |
| 2026-04-21 14:27 | 50.68826 | -119.48119 | 5479 ft | 167 kts | 91° |
| 2026-04-21 14:27 | 50.68790 | -119.46306 | 5474 ft | 167 kts | 91° |
| 2026-04-21 14:28 | 50.68754 | -119.44472 | 5476 ft | 167 kts | 91° |
| 2026-04-21 14:28 | 50.68718 | -119.42617 | 5476 ft | 167 kts | 91° |
| 2026-04-21 14:28 | 50.68681 | -119.40786 | 5473 ft | 167 kts | 91° |
| 2026-04-21 14:28 | 50.68646 | -119.38958 | 5478 ft | 167 kts | 91° |
| 2026-04-21 14:29 | 50.68608 | -119.37148 | 5479 ft | 167 kts | 91° |
| 2026-04-21 14:29 | 50.68569 | -119.35311 | 5480 ft | 167 kts | 91° |
| 2026-04-21 14:29 | 50.68533 | -119.33474 | 5479 ft | 167 kts | 91° |
| 2026-04-21 14:29 | 50.68496 | -119.31636 | 5481 ft | 168 kts | 91° |
| 2026-04-21 14:30 | 50.68448 | -119.29950 | 5467 ft | 138 kts | 92° |
| 2026-04-21 14:30 | 50.68403 | -119.28631 | 5474 ft | 103 kts | 92° |
| 2026-04-21 14:30 | 50.68245 | -119.27676 | 5381 ft | 87 kts | 129° |
| 2026-04-21 14:30 | 50.67870 | -119.26919 | 5138 ft | 91 kts | 128° |
| 2026-04-21 14:31 | 50.67474 | -119.26121 | 4782 ft | 93 kts | 128° |
| 2026-04-21 14:31 | 50.67078 | -119.25345 | 4442 ft | 92 kts | 134° |
| 2026-04-21 14:31 | 50.66573 | -119.24727 | 4065 ft | 92 kts | 146° |
| 2026-04-21 14:31 | 50.66022 | -119.24199 | 3683 ft | 93 kts | 149° |
| 2026-04-21 14:32 | 50.65481 | -119.23656 | 3317 ft | 91 kts | 130° |
| 2026-04-21 14:32 | 50.65349 | -119.22767 | 3040 ft | 84 kts | 77° |
| 2026-04-21 14:32 | 50.65676 | -119.22037 | 2722 ft | 85 kts | 30° |
| 2026-04-21 14:32 | 50.66257 | -119.21805 | 2377 ft | 88 kts | 1° |
| 2026-04-21 14:33 | 50.66842 | -119.22020 | 2107 ft | 85 kts | 343° |
| 2026-04-21 14:33 | 50.67373 | -119.22329 | 1908 ft | 79 kts | 338° |
| 2026-04-21 14:33 | 50.67863 | -119.22629 | 1777 ft | 69 kts | 338° |
| 2026-04-21 14:33 | 50.68167 | -119.22809 | 1777 ft | 23 kts | 336° |
| 2026-04-21 14:34 | 50.68216 | -119.22919 | 1775 ft | 10 kts | 272° |
| 2026-04-21 14:34 | 50.68277 | -119.23007 | 1775 ft | 14 kts | 322° |
| 2026-04-21 14:34 | 50.68359 | -119.23105 | 1778 ft | 15 kts | 319° |
| 2026-04-21 14:34 | 50.68440 | -119.23200 | 1776 ft | 13 kts | 317° |
| 2026-04-21 14:35 | 50.68501 | -119.23277 | 1778 ft | 10 kts | 327° |
| 2026-04-21 14:35 | 50.68535 | -119.23373 | 1775 ft | 11 kts | 254° |
| 2026-04-21 14:35 | 50.68510 | -119.23347 | 1777 ft | 4 kts | 52° |
| 2026-04-21 14:35 | 50.68511 | -119.23346 | 1771 ft | 0 kts | 53° |
| 2026-04-21 14:41 | 50.68513 | -119.23340 | 1774 ft | 3 kts | 52° |
| 2026-04-21 14:42 | 50.68523 | -119.23317 | 1776 ft | 4 kts | 74° |
| 2026-04-21 14:42 | 50.68485 | -119.23255 | 1777 ft | 12 kts | 140° |
| 2026-04-21 14:42 | 50.68403 | -119.23155 | 1776 ft | 16 kts | 141° |
| 2026-04-21 14:42 | 50.68318 | -119.23054 | 1776 ft | 14 kts | 143° |
| 2026-04-21 14:43 | 50.68241 | -119.22960 | 1773 ft | 16 kts | 147° |
| 2026-04-21 14:43 | 50.68145 | -119.22843 | 1777 ft | 15 kts | 142° |
| 2026-04-21 14:43 | 50.68061 | -119.22758 | 1779 ft | 16 kts | 159° |
| 2026-04-21 14:43 | 50.67980 | -119.22700 | 1779 ft | 8 kts | 61° |
| 2026-04-21 14:44 | 50.67997 | -119.22706 | 1780 ft | 0 kts | 339° |
| 2026-04-21 14:44 | 50.68000 | -119.22708 | 1780 ft | 6 kts | 338° |
| 2026-04-21 14:44 | 50.68175 | -119.22817 | 1778 ft | 48 kts | 340° |
| 2026-04-21 14:44 | 50.68601 | -119.23072 | 1782 ft | 81 kts | 339° |
| 2026-04-21 14:45 | 50.69167 | -119.23426 | 1897 ft | 90 kts | 338° |
| 2026-04-21 14:45 | 50.69735 | -119.23876 | 2032 ft | 95 kts | 325° |
| 2026-04-21 14:45 | 50.70282 | -119.24507 | 2169 ft | 100 kts | 323° |
| 2026-04-21 14:45 | 50.70874 | -119.25229 | 2203 ft | 119 kts | 322° |
| 2026-04-21 14:46 | 50.71544 | -119.26039 | 2380 ft | 122 kts | 323° |
| 2026-04-21 14:46 | 50.72228 | -119.26833 | 2556 ft | 123 kts | 324° |
| 2026-04-21 14:46 | 50.72911 | -119.27631 | 2749 ft | 120 kts | 321° |
| 2026-04-21 14:46 | 50.73604 | -119.28401 | 2895 ft | 125 kts | 325° |
| 2026-04-21 14:47 | 50.74346 | -119.29168 | 2974 ft | 129 kts | 326° |
| 2026-04-21 14:47 | 50.75138 | -119.29889 | 3015 ft | 134 kts | 330° |
| 2026-04-21 14:47 | 50.75972 | -119.30552 | 3092 ft | 134 kts | 335° |
| 2026-04-21 14:47 | 50.76845 | -119.31135 | 3097 ft | 140 kts | 336° |
| 2026-04-21 14:48 | 50.77750 | -119.31757 | 3092 ft | 144 kts | 336° |
| 2026-04-21 14:48 | 50.78681 | -119.32375 | 3042 ft | 148 kts | 337° |
| 2026-04-21 14:48 | 50.79640 | -119.32997 | 2993 ft | 147 kts | 337° |
| 2026-04-21 14:48 | 50.80559 | -119.33615 | 2925 ft | 144 kts | 337° |
| 2026-04-21 14:49 | 50.81465 | -119.34260 | 2893 ft | 141 kts | 334° |
| 2026-04-21 14:49 | 50.82337 | -119.34967 | 2832 ft | 141 kts | 330° |
| 2026-04-21 14:49 | 50.83169 | -119.35773 | 2809 ft | 139 kts | 327° |
| 2026-04-21 14:49 | 50.83911 | -119.36705 | 2859 ft | 135 kts | 313° |
| 2026-04-21 14:50 | 50.84305 | -119.37472 | 2866 ft | 135 kts | 306° |
| 2026-04-21 14:50 | 50.84941 | -119.39162 | 2940 ft | 132 kts | 298° |
| 2026-04-21 14:50 | 50.85366 | -119.40459 | 2965 ft | 133 kts | 296° |
| 2026-04-21 14:50 | 50.85765 | -119.41790 | 2969 ft | 134 kts | 295° |
| 2026-04-21 14:51 | 50.86149 | -119.43121 | 3025 ft | 131 kts | 294° |
| 2026-04-21 14:51 | 50.86536 | -119.44428 | 3056 ft | 132 kts | 294° |
| 2026-04-21 14:51 | 50.86939 | -119.45750 | 3081 ft | 133 kts | 294° |
| 2026-04-21 14:51 | 50.87309 | -119.47085 | 3121 ft | 133 kts | 291° |
| 2026-04-21 14:52 | 50.87652 | -119.48475 | 3104 ft | 137 kts | 288° |
| 2026-04-21 14:52 | 50.87905 | -119.49929 | 3114 ft | 138 kts | 279° |
| 2026-04-21 14:52 | 50.88031 | -119.51441 | 3015 ft | 141 kts | 276° |
| 2026-04-21 14:52 | 50.88178 | -119.52965 | 2668 ft | 139 kts | 278° |
| 2026-04-21 14:53 | 50.88358 | -119.54441 | 2351 ft | 134 kts | 289° |
| 2026-04-21 14:53 | 50.88871 | -119.55609 | 2115 ft | 128 kts | 314° |
| 2026-04-21 14:53 | 50.89490 | -119.56515 | 1985 ft | 111 kts | 317° |
| 2026-04-21 14:53 | 50.89933 | -119.57419 | 1886 ft | 98 kts | 291° |
| 2026-04-21 14:54 | 50.89922 | -119.58371 | 1726 ft | 88 kts | 242° |
| 2026-04-21 14:54 | 50.89491 | -119.59007 | 1544 ft | 84 kts | 205° |
| 2026-04-21 14:54 | 50.88935 | -119.59202 | 1376 ft | 81 kts | 181° |
| 2026-04-21 14:54 | 50.88364 | -119.59132 | 1225 ft | 82 kts | 174° |
| 2026-04-21 14:55 | 50.87858 | -119.59063 | 1199 ft | 54 kts | 175° |
| 2026-04-21 14:55 | 50.87664 | -119.59034 | 1193 ft | 11 kts | 173° |
| 2026-04-21 14:55 | 50.87664 | -119.59018 | 1193 ft | 4 kts | 344° |
| 2026-04-21 14:55 | 50.87698 | -119.59027 | 1192 ft | 6 kts | 35° |
| 2026-04-21 14:56 | 50.87716 | -119.59012 | 1194 ft | 0 kts | 360° |
| 2026-04-21 15:02 | 50.87725 | -119.59041 | 1192 ft | 6 kts | 341° |
| 2026-04-21 15:02 | 50.87732 | -119.59042 | 1196 ft | 0 kts | 355° |
| 2026-04-21 15:02 | 50.87797 | -119.59053 | 1199 ft | 27 kts | 354° |
| 2026-04-21 15:02 | 50.88110 | -119.59092 | 1208 ft | 62 kts | 355° |
| 2026-04-21 15:03 | 50.88623 | -119.59192 | 1277 ft | 81 kts | 352° |
| 2026-04-21 15:03 | 50.89175 | -119.59345 | 1439 ft | 81 kts | 340° |
| 2026-04-21 15:03 | 50.89655 | -119.59833 | 1599 ft | 82 kts | 308° |
| 2026-04-21 15:03 | 50.89833 | -119.60674 | 1776 ft | 83 kts | 264° |
| 2026-04-21 15:04 | 50.89537 | -119.61473 | 1904 ft | 90 kts | 219° |
| 2026-04-21 15:04 | 50.89069 | -119.62085 | 2082 ft | 87 kts | 219° |
| 2026-04-21 15:04 | 50.88598 | -119.62719 | 2232 ft | 91 kts | 220° |
| 2026-04-21 15:04 | 50.88105 | -119.63381 | 2387 ft | 95 kts | 219° |
| 2026-04-21 15:05 | 50.87581 | -119.64080 | 2523 ft | 104 kts | 219° |
| 2026-04-21 15:05 | 50.86288 | -119.65785 | 2676 ft | 137 kts | 219° |
| 2026-04-21 15:05 | 50.85512 | -119.66792 | 2684 ft | 150 kts | 219° |
| 2026-04-21 15:06 | 50.84675 | -119.67868 | 2680 ft | 159 kts | 219° |
| 2026-04-21 15:06 | 50.83805 | -119.68985 | 2675 ft | 163 kts | 219° |
| 2026-04-21 15:06 | 50.82916 | -119.70127 | 2673 ft | 166 kts | 219° |
| 2026-04-21 15:06 | 50.82029 | -119.71266 | 2777 ft | 162 kts | 219° |
| 2026-04-21 15:07 | 50.81159 | -119.72383 | 2885 ft | 160 kts | 219° |
| 2026-04-21 15:07 | 50.80297 | -119.73490 | 2990 ft | 159 kts | 219° |
| 2026-04-21 15:07 | 50.79442 | -119.74590 | 3092 ft | 158 kts | 219° |
| 2026-04-21 15:07 | 50.78589 | -119.75691 | 3194 ft | 158 kts | 219° |
| 2026-04-21 15:08 | 50.77740 | -119.76793 | 3297 ft | 158 kts | 219° |
| 2026-04-21 15:08 | 50.76894 | -119.77892 | 3399 ft | 158 kts | 219° |
| 2026-04-21 15:08 | 50.76058 | -119.78979 | 3500 ft | 158 kts | 219° |
| 2026-04-21 15:08 | 50.75202 | -119.80098 | 3601 ft | 158 kts | 219° |
| 2026-04-21 15:09 | 50.74368 | -119.81188 | 3699 ft | 158 kts | 219° |
| 2026-04-21 15:09 | 50.73522 | -119.82293 | 3801 ft | 158 kts | 219° |
| 2026-04-21 15:09 | 50.72750 | -119.83526 | 3897 ft | 158 kts | 229° |
| 2026-04-21 15:09 | 50.72058 | -119.84871 | 4000 ft | 158 kts | 231° |
| 2026-04-21 15:10 | 50.71388 | -119.86244 | 4109 ft | 158 kts | 232° |
| 2026-04-21 15:10 | 50.70724 | -119.87635 | 4208 ft | 158 kts | 232° |
| 2026-04-21 15:10 | 50.70067 | -119.89028 | 4311 ft | 159 kts | 233° |
| 2026-04-21 15:10 | 50.69410 | -119.90432 | 4402 ft | 160 kts | 233° |
| 2026-04-21 15:11 | 50.68745 | -119.91857 | 4438 ft | 163 kts | 233° |
| 2026-04-21 15:11 | 50.68066 | -119.93311 | 4454 ft | 166 kts | 233° |
| 2026-04-21 15:11 | 50.67378 | -119.94783 | 4462 ft | 168 kts | 233° |
| 2026-04-21 15:11 | 50.66681 | -119.96274 | 4467 ft | 169 kts | 233° |
| 2026-04-21 15:12 | 50.65991 | -119.97781 | 4473 ft | 170 kts | 238° |
| 2026-04-21 15:12 | 50.65704 | -119.99581 | 4473 ft | 171 kts | 263° |
| 2026-04-21 15:12 | 50.65596 | -120.01436 | 4480 ft | 169 kts | 265° |
| 2026-04-21 15:12 | 50.65529 | -120.03285 | 4482 ft | 169 kts | 268° |
| 2026-04-21 15:13 | 50.65656 | -120.05123 | 4488 ft | 170 kts | 279° |
| 2026-04-21 15:13 | 50.65882 | -120.06952 | 4490 ft | 169 kts | 281° |
| 2026-04-21 15:13 | 50.66133 | -120.08770 | 4492 ft | 170 kts | 282° |
| 2026-04-21 15:13 | 50.66396 | -120.10569 | 4496 ft | 171 kts | 283° |
| 2026-04-21 15:14 | 50.66670 | -120.12392 | 4493 ft | 171 kts | 283° |
| 2026-04-21 15:14 | 50.66948 | -120.14223 | 4498 ft | 172 kts | 283° |
| 2026-04-21 15:14 | 50.67228 | -120.16055 | 4497 ft | 172 kts | 283° |
| 2026-04-21 15:14 | 50.67510 | -120.17894 | 4501 ft | 173 kts | 283° |
| 2026-04-21 15:15 | 50.67794 | -120.19740 | 4504 ft | 173 kts | 283° |
| 2026-04-21 15:15 | 50.68078 | -120.21584 | 4502 ft | 173 kts | 283° |
| 2026-04-21 15:15 | 50.68310 | -120.23446 | 4504 ft | 173 kts | 272° |
| 2026-04-21 15:15 | 50.68302 | -120.25340 | 4504 ft | 173 kts | 267° |
| 2026-04-21 15:16 | 50.68247 | -120.27229 | 4331 ft | 167 kts | 266° |
| 2026-04-21 15:16 | 50.68181 | -120.29015 | 4147 ft | 160 kts | 265° |
| 2026-04-21 15:16 | 50.68120 | -120.30743 | 3953 ft | 157 kts | 271° |
| 2026-04-21 15:16 | 50.68277 | -120.32435 | 3722 ft | 155 kts | 280° |
| 2026-04-21 15:17 | 50.68577 | -120.34028 | 3439 ft | 148 kts | 287° |
| 2026-04-21 15:17 | 50.68887 | -120.35556 | 3071 ft | 145 kts | 286° |
| 2026-04-21 15:17 | 50.69158 | -120.37073 | 2632 ft | 144 kts | 284° |
| 2026-04-21 15:17 | 50.69391 | -120.38627 | 2129 ft | 146 kts | 282° |
| 2026-04-21 15:18 | 50.69616 | -120.40140 | 1719 ft | 141 kts | 282° |
| 2026-04-21 15:18 | 50.69812 | -120.41546 | 1454 ft | 112 kts | 281° |
| 2026-04-21 15:18 | 50.69963 | -120.42573 | 1246 ft | 84 kts | 280° |
| 2026-04-21 15:18 | 50.70086 | -120.43377 | 1140 ft | 67 kts | 281° |
| 2026-04-21 15:19 | 50.70170 | -120.43969 | 1134 ft | 37 kts | 283° |
| 2026-04-21 15:19 | 50.70213 | -120.44254 | 1135 ft | 24 kts | 282° |
| 2026-04-21 15:19 | 50.70294 | -120.44378 | 1133 ft | 9 kts | 7° |
| 2026-04-21 15:19 | 50.70344 | -120.44330 | 1134 ft | 10 kts | 55° |
| 2026-04-21 15:20 | 50.70389 | -120.44199 | 1134 ft | 15 kts | 61° |
| 2026-04-21 15:20 | 50.70440 | -120.44055 | 1133 ft | 16 kts | 59° |
| 2026-04-21 15:20 | 50.70531 | -120.43968 | 1134 ft | 14 kts | 50° |
| 2026-04-21 15:20 | 50.70540 | -120.43898 | 1137 ft | 9 kts | 163° |
| 2026-04-21 15:21 | 50.70510 | -120.43851 | 1133 ft | 6 kts | 68° |
| 2026-04-21 15:21 | 50.70528 | -120.43798 | 1136 ft | 0 kts | 60° |